Time;durP1;ratioP1;P1;durP2;ratioP2;P2;SDS_P1;SDS_P2;PMS_P1;PMS_P2;Temp;Humidity;BMP_temperature;BMP_pressure;BME280_temperature;BME280_humidity;BME280_pressure;Samples;Min_cycle;Max_cycle;Signal;HPM_P1;HPM_P2
2024/03/04 00:02:45;;;;;;;53.20;24.63;;;9.10;71.10;;;;;;9170224;19;20017;-69
2024/03/04 00:05:50;;;;;;;54.75;26.75;;;9.10;71.20;;;;;;9170537;19;20026;-69
2024/03/04 00:08:58;;;;;;;51.63;24.58;;;9.00;71.20;;;;;;9163829;19;20015;-69
2024/03/04 00:12:05;;;;;;;49.22;23.33;;;9.00;71.30;;;;;;9167148;19;20022;-69
2024/03/04 00:15:13;;;;;;;54.03;26.20;;;8.90;71.30;;;;;;9171991;19;20014;-69
2024/03/04 00:18:22;;;;;;;45.75;24.83;;;8.90;71.30;;;;;;9169871;19;20022;-69
2024/03/04 00:21:30;;;;;;;52.45;25.40;;;8.90;71.40;;;;;;9173037;19;20014;-69
2024/03/04 00:24:35;;;;;;;48.90;24.15;;;8.80;71.30;;;;;;9172404;19;20015;-69
2024/03/04 00:27:43;;;;;;;48.20;23.85;;;8.80;71.40;;;;;;9171864;19;20018;-68
2024/03/04 00:30:48;;;;;;;46.67;23.13;;;8.80;71.50;;;;;;9169206;19;20033;-68
2024/03/04 00:33:58;;;;;;;52.03;23.77;;;8.80;71.50;;;;;;9169767;19;20364;-69
2024/03/04 00:37:05;;;;;;;50.85;24.65;;;8.70;71.50;;;;;;9168827;19;20063;-68
2024/03/04 00:40:13;;;;;;;55.92;24.15;;;8.70;71.50;;;;;;9170320;19;20011;-69
2024/03/04 00:43:20;;;;;;;48.03;22.85;;;8.70;71.60;;;;;;9179932;19;20019;-68
2024/03/04 00:46:28;;;;;;;47.40;23.27;;;8.60;71.50;;;;;;9180105;19;20014;-69
2024/03/04 00:49:36;;;;;;;53.55;25.52;;;8.60;71.60;;;;;;9179304;19;20058;-69
2024/03/04 00:52:43;;;;;;;49.85;24.88;;;8.60;72.30;;;;;;9177973;19;20014;-69
2024/03/04 00:55:49;;;;;;;46.67;23.52;;;8.60;71.70;;;;;;9180256;19;20010;-70
2024/03/04 00:58:58;;;;;;;48.55;24.20;;;8.50;71.80;;;;;;9171383;19;20046;-68
2024/03/04 01:02:04;;;;;;;53.72;25.98;;;8.50;71.80;;;;;;9174311;19;20014;-69
2024/03/04 01:05:14;;;;;;;52.75;24.02;;;8.50;71.80;;;;;;9175751;19;20010;-69
2024/03/04 01:08:21;;;;;;;57.08;26.30;;;8.40;71.80;;;;;;9171227;19;20352;-69
2024/03/04 01:11:28;;;;;;;57.22;24.80;;;8.40;71.90;;;;;;9176947;19;20014;-69
2024/03/04 01:14:34;;;;;;;54.42;26.08;;;8.40;71.90;;;;;;9178472;19;20686;-69
2024/03/04 01:17:41;;;;;;;55.47;25.80;;;8.40;72.00;;;;;;9176073;19;20014;-69
2024/03/04 01:20:52;;;;;;;56.33;25.80;;;8.30;72.00;;;;;;9175546;19;20018;-70
2024/03/04 01:23:59;;;;;;;51.58;26.98;;;8.30;72.20;;;;;;9179553;19;20018;-67
2024/03/04 01:27:06;;;;;;;59.55;26.50;;;8.30;72.10;;;;;;9175729;19;20575;-69
2024/03/04 01:30:16;;;;;;;51.13;27.10;;;8.30;72.20;;;;;;9177097;19;20011;-69
2024/03/04 01:33:22;;;;;;;56.25;25.63;;;8.30;72.30;;;;;;9173970;19;20025;-69
2024/03/04 01:36:33;;;;;;;53.83;25.52;;;8.20;72.30;;;;;;9177099;19;20015;-67
2024/03/04 01:39:38;;;;;;;60.28;26.83;;;8.20;72.40;;;;;;9175981;19;20120;-69
2024/03/04 01:42:46;;;;;;;60.30;27.27;;;8.20;72.40;;;;;;9173518;19;20010;-70
2024/03/04 01:45:52;;;;;;;62.22;25.90;;;8.20;72.40;;;;;;9173815;19;20014;-70
2024/03/04 01:49:00;;;;;;;58.88;26.33;;;8.20;72.50;;;;;;9176585;19;20099;-68
2024/03/04 01:52:09;;;;;;;58.75;26.60;;;8.10;72.50;;;;;;9173887;19;20022;-69
2024/03/04 01:55:17;;;;;;;60.88;26.73;;;8.20;72.60;;;;;;9175861;19;20011;-69
2024/03/04 01:58:23;;;;;;;51.47;25.38;;;8.20;72.70;;;;;;9174743;19;20022;-68
2024/03/04 02:01:31;;;;;;;47.78;25.63;;;8.10;72.60;;;;;;9172966;19;20011;-68
2024/03/04 02:04:38;;;;;;;50.63;25.67;;;8.10;72.70;;;;;;9172502;19;20007;-68
2024/03/04 02:07:49;;;;;;;58.00;24.98;;;8.10;72.70;;;;;;9172367;19;20025;-68
2024/03/04 02:10:55;;;;;;;52.47;25.58;;;8.10;72.80;;;;;;9172010;19;20082;-67
2024/03/04 02:14:03;;;;;;;58.30;25.05;;;8.10;72.80;;;;;;9172839;19;20002;-68
2024/03/04 02:17:10;;;;;;;53.08;25.48;;;8.00;72.70;;;;;;9173220;19;20030;-68
2024/03/04 02:20:19;;;;;;;52.13;25.15;;;8.00;72.80;;;;;;9174660;19;20011;-67
2024/03/04 02:23:27;;;;;;;55.83;25.58;;;8.00;72.80;;;;;;9172006;19;20022;-68
2024/03/04 02:26:36;;;;;;;55.40;26.15;;;8.00;72.80;;;;;;9172547;19;20038;-68
2024/03/04 02:29:41;;;;;;;59.58;25.15;;;8.00;73.50;;;;;;9172946;19;20011;-70
2024/03/04 02:32:49;;;;;;;54.47;25.45;;;8.00;72.90;;;;;;9173213;19;20021;-67
2024/03/04 02:35:55;;;;;;;54.25;25.88;;;7.90;72.90;;;;;;9172452;19;20014;-68
2024/03/04 02:39:10;;;;;;;50.00;22.38;;;7.90;72.90;;;;;;9170384;19;20472;-68
2024/03/04 02:42:17;;;;;;;46.80;22.02;;;7.90;73.00;;;;;;9172334;19;20023;-68
2024/03/04 02:45:25;;;;;;;47.28;22.35;;;7.90;73.00;;;;;;9171650;19;20018;-68
2024/03/04 02:48:30;;;;;;;52.63;21.58;;;7.80;73.10;;;;;;9172581;19;20556;-68
2024/03/04 02:51:38;;;;;;;45.22;21.00;;;7.80;73.30;;;;;;9172051;19;20426;-68
2024/03/04 02:54:46;;;;;;;46.08;21.00;;;7.80;73.40;;;;;;9173284;19;20006;-68
2024/03/04 02:57:53;;;;;;;42.38;21.42;;;7.80;73.50;;;;;;9173056;19;20368;-68
2024/03/04 03:00:59;;;;;;;42.70;20.90;;;7.80;73.60;;;;;;9173307;19;20018;-69
2024/03/04 03:04:06;;;;;;;54.90;22.63;;;7.70;73.60;;;;;;9173646;19;20014;-68
2024/03/04 03:07:12;;;;;;;51.50;22.13;;;7.80;73.80;;;;;;9166232;19;20014;-68
2024/03/04 03:10:23;;;;;;;52.03;24.20;;;7.80;74.00;;;;;;9174541;19;20014;-68
2024/03/04 03:13:29;;;;;;;53.35;23.35;;;7.80;74.10;;;;;;9172538;19;20018;-68
2024/03/04 03:16:37;;;;;;;50.17;23.52;;;7.80;74.10;;;;;;9173878;19;20025;-69
2024/03/04 03:19:44;;;;;;;54.95;24.65;;;7.80;74.20;;;;;;9172118;19;20379;-69
2024/03/04 03:22:51;;;;;;;63.40;27.40;;;7.80;74.40;;;;;;9175027;19;20021;-68
2024/03/04 03:25:59;;;;;;;59.42;25.58;;;7.90;74.50;;;;;;9173536;19;20023;-68
2024/03/04 03:29:07;;;;;;;57.88;25.55;;;7.90;74.70;;;;;;9170652;19;20371;-70
2024/03/04 03:32:12;;;;;;;68.25;26.48;;;7.90;74.60;;;;;;9172411;19;20019;-69
2024/03/04 03:35:20;;;;;;;67.13;26.10;;;8.00;74.80;;;;;;9171371;19;20018;-68
2024/03/04 03:38:25;;;;;;;64.53;29.15;;;8.00;74.80;;;;;;9171707;19;20019;-68
2024/03/04 03:41:35;;;;;;;80.25;28.92;;;8.00;74.80;;;;;;9170837;19;20018;-68
2024/03/04 03:44:41;;;;;;;68.57;28.73;;;8.10;75.00;;;;;;9172780;19;20026;-67
2024/03/04 03:47:48;;;;;;;76.60;29.45;;;8.20;75.10;;;;;;9173983;19;20022;-68
2024/03/04 03:50:54;;;;;;;82.95;30.63;;;8.20;75.10;;;;;;9170302;19;20029;-68
2024/03/04 03:54:02;;;;;;;72.75;30.52;;;8.20;75.30;;;;;;9172105;19;20018;-68
2024/03/04 03:57:10;;;;;;;73.85;31.42;;;8.30;75.30;;;;;;9175225;19;20029;-68
2024/03/04 04:00:19;;;;;;;78.20;30.23;;;8.30;75.40;;;;;;9171975;19;20342;-69
2024/03/04 04:03:25;;;;;;;80.60;30.60;;;8.40;75.50;;;;;;9172987;19;20022;-68
2024/03/04 04:06:32;;;;;;;78.15;30.60;;;8.40;75.50;;;;;;9167427;19;20037;-68
2024/03/04 04:09:38;;;;;;;76.40;29.45;;;8.50;75.60;;;;;;9171890;19;20051;-68
2024/03/04 04:12:48;;;;;;;69.40;27.42;;;8.50;75.60;;;;;;9173376;19;20023;-68
2024/03/04 04:15:53;;;;;;;68.80;27.90;;;8.50;75.70;;;;;;9170741;19;20480;-68
2024/03/04 04:19:01;;;;;;;73.43;27.08;;;8.60;76.40;;;;;;9183446;19;20029;-68
2024/03/04 04:22:06;;;;;;;78.82;27.65;;;8.60;75.90;;;;;;9183230;19;20011;-69
2024/03/04 04:25:14;;;;;;;79.05;29.35;;;8.60;75.90;;;;;;9182876;19;20019;-68
2024/03/04 04:28:25;;;;;;;77.07;29.88;;;8.60;76.00;;;;;;9180977;19;20431;-68
2024/03/04 04:31:32;;;;;;;78.82;29.48;;;8.70;76.10;;;;;;9180078;19;20025;-69
2024/03/04 04:34:38;;;;;;;64.47;27.58;;;8.70;76.10;;;;;;9175136;19;20377;-68
2024/03/04 04:37:46;;;;;;;70.38;28.52;;;8.70;76.10;;;;;;9178750;19;20633;-69
2024/03/04 04:40:52;;;;;;;70.47;27.58;;;8.80;76.20;;;;;;9178263;19;20037;-69
2024/03/04 04:44:02;;;;;;;69.32;27.70;;;8.80;76.30;;;;;;9178085;19;20341;-68
2024/03/04 04:47:08;;;;;;;75.05;27.60;;;8.80;76.30;;;;;;9181060;19;20014;-67
2024/03/04 04:50:15;;;;;;;64.05;26.42;;;8.80;76.30;;;;;;9179228;19;20014;-70
2024/03/04 04:53:23;;;;;;;64.53;24.80;;;8.90;76.40;;;;;;9179407;19;20022;-69
2024/03/04 04:56:31;;;;;;;59.65;24.13;;;8.90;76.40;;;;;;9175659;19;20113;-67
2024/03/04 04:59:39;;;;;;;61.20;25.60;;;8.90;76.40;;;;;;9176244;19;20029;-70
2024/03/04 05:02:46;;;;;;;61.03;24.75;;;8.90;76.50;;;;;;9178856;19;20649;-68
2024/03/04 05:05:54;;;;;;;60.05;26.00;;;8.90;76.50;;;;;;9177514;19;20022;-67
2024/03/04 05:09:02;;;;;;;55.67;24.38;;;9.00;76.50;;;;;;9176992;19;20019;-68
2024/03/04 05:12:09;;;;;;;59.08;24.92;;;9.00;76.50;;;;;;9177448;19;20791;-68
2024/03/04 05:15:19;;;;;;;62.05;25.20;;;9.00;76.60;;;;;;9174732;19;20007;-68
2024/03/04 05:18:25;;;;;;;52.65;23.30;;;9.00;76.60;;;;;;9179966;19;20019;-68
2024/03/04 05:21:32;;;;;;;52.90;23.25;;;9.00;76.60;;;;;;9177007;19;20025;-67
2024/03/04 05:24:38;;;;;;;56.65;24.27;;;9.00;76.60;;;;;;9177565;19;20022;-71
2024/03/04 05:27:45;;;;;;;54.05;23.02;;;9.00;76.70;;;;;;9177122;19;20352;-67
2024/03/04 05:30:54;;;;;;;59.28;23.60;;;9.00;76.70;;;;;;9174505;19;20082;-68
2024/03/04 05:34:01;;;;;;;48.42;23.08;;;9.10;76.80;;;;;;9179719;19;20015;-68
2024/03/04 05:37:07;;;;;;;52.92;23.25;;;9.10;76.80;;;;;;9178020;19;20431;-67
2024/03/04 05:40:15;;;;;;;55.63;24.10;;;9.10;76.80;;;;;;9179792;19;20018;-67
2024/03/04 05:43:21;;;;;;;61.88;23.05;;;9.10;76.80;;;;;;9178273;19;20018;-67
2024/03/04 05:46:31;;;;;;;54.38;23.02;;;9.10;76.80;;;;;;9176862;19;20018;-68
2024/03/04 05:49:38;;;;;;;60.65;24.23;;;9.20;76.90;;;;;;9178073;19;20010;-68
2024/03/04 05:52:46;;;;;;;49.42;22.85;;;9.10;76.80;;;;;;9177139;19;20010;-67
2024/03/04 05:55:51;;;;;;;56.08;24.25;;;9.10;76.80;;;;;;9177749;19;20028;-67
2024/03/04 05:58:59;;;;;;;52.00;22.77;;;9.20;76.90;;;;;;9176740;19;20364;-68
2024/03/04 06:02:07;;;;;;;52.08;22.52;;;9.10;76.80;;;;;;9177769;19;20608;-68
2024/03/04 06:05:15;;;;;;;50.97;22.65;;;9.10;76.90;;;;;;9177363;19;20102;-67
2024/03/04 06:08:20;;;;;;;52.38;23.67;;;9.10;76.90;;;;;;9173256;19;20605;-67
2024/03/04 06:11:28;;;;;;;47.58;22.77;;;9.10;77.00;;;;;;9173838;19;20033;-68
2024/03/04 06:14:34;;;;;;;59.70;24.33;;;9.10;77.00;;;;;;9175348;19;20051;-67
2024/03/04 06:17:45;;;;;;;53.53;22.98;;;9.10;77.00;;;;;;9175673;19;20021;-68
2024/03/04 06:20:50;;;;;;;52.53;22.75;;;9.10;77.00;;;;;;9175202;19;20029;-68
2024/03/04 06:23:58;;;;;;;52.70;22.15;;;9.10;77.00;;;;;;9176567;19;20014;-68
2024/03/04 06:27:04;;;;;;;51.88;23.35;;;9.10;77.10;;;;;;9175894;19;20019;-68
2024/03/04 06:30:16;;;;;;;57.17;24.88;;;9.10;77.10;;;;;;9177300;19;20015;-67
2024/03/04 06:33:24;;;;;;;56.20;24.08;;;9.10;77.20;;;;;;9176368;19;20014;-69
2024/03/04 06:36:46;;;;;;;54.92;23.40;;;9.10;77.30;;;;;;9174351;19;20463;-69
2024/03/04 06:39:51;;;;;;;57.47;23.48;;;9.10;77.30;;;;;;9176364;19;20479;-69
2024/03/04 06:42:59;;;;;;;59.05;25.90;;;9.10;77.20;;;;;;9176107;19;20014;-69
2024/03/04 06:46:05;;;;;;;60.15;24.77;;;9.10;77.90;;;;;;9173793;19;20016;-69
2024/03/04 06:49:16;;;;;;;54.58;23.80;;;9.20;77.40;;;;;;9176202;19;20015;-68
2024/03/04 06:52:21;;;;;;;59.72;25.15;;;9.20;77.40;;;;;;9176567;19;20022;-69
2024/03/04 06:55:32;;;;;;;61.97;24.70;;;9.10;77.40;;;;;;9170949;19;20018;-69
2024/03/04 06:58:37;;;;;;;56.10;24.35;;;9.20;77.40;;;;;;9175776;19;20018;-68
2024/03/04 07:01:45;;;;;;;50.95;24.00;;;9.20;77.40;;;;;;9174052;19;20416;-69
2024/03/04 07:04:53;;;;;;;46.67;22.42;;;9.10;78.10;;;;;;9172899;19;20029;-68
2024/03/04 07:08:01;;;;;;;61.28;25.30;;;9.20;77.50;;;;;;9171090;19;20025;-69
2024/03/04 07:11:07;;;;;;;63.30;24.27;;;9.20;77.50;;;;;;9175112;19;20018;-68
2024/03/04 07:14:15;;;;;;;60.53;23.83;;;9.10;77.40;;;;;;9173916;19;20022;-70
2024/03/04 07:17:20;;;;;;;63.15;25.90;;;9.20;77.50;;;;;;9171959;19;20019;-67
2024/03/04 07:20:30;;;;;;;68.13;24.38;;;9.10;77.50;;;;;;9174466;19;20029;-68
2024/03/04 07:23:37;;;;;;;71.57;25.42;;;9.20;77.70;;;;;;9173062;19;20102;-69
2024/03/04 07:26:44;;;;;;;61.33;25.00;;;9.20;77.70;;;;;;9174100;19;20018;-70
2024/03/04 07:29:50;;;;;;;57.05;24.00;;;9.20;77.70;;;;;;9175730;19;20487;-70
2024/03/04 07:33:08;;;;;;;59.25;26.13;;;9.10;77.70;;;;;;9174310;19;20043;-69
2024/03/04 07:36:16;;;;;;;73.22;27.90;;;9.10;77.70;;;;;;9173872;19;20028;-70
2024/03/04 07:39:25;;;;;;;64.90;25.23;;;9.10;77.80;;;;;;9175291;19;20022;-70
2024/03/04 07:42:30;;;;;;;71.68;28.08;;;9.10;78.40;;;;;;9174332;19;20017;-70
2024/03/04 07:45:38;;;;;;;64.88;25.38;;;9.10;77.80;;;;;;9174876;19;20101;-69
2024/03/04 07:48:43;;;;;;;62.95;24.25;;;9.10;77.90;;;;;;9174852;19;20118;-71
2024/03/04 07:51:54;;;;;;;54.90;23.92;;;9.10;77.90;;;;;;9172648;19;20022;-69
2024/03/04 07:54:59;;;;;;;64.05;26.38;;;9.10;78.00;;;;;;9174629;19;20006;-70
2024/03/04 07:58:07;;;;;;;55.15;24.33;;;9.10;78.00;;;;;;9172075;19;20025;-71
2024/03/04 08:01:12;;;;;;;56.13;23.17;;;9.10;78.10;;;;;;9173867;19;20520;-69
2024/03/04 08:04:20;;;;;;;57.10;21.52;;;9.10;78.10;;;;;;9173053;19;20352;-69
2024/03/04 08:07:28;;;;;;;51.35;22.60;;;9.10;78.10;;;;;;9170866;19;20352;-69
2024/03/04 08:10:38;;;;;;;63.22;23.85;;;9.10;78.20;;;;;;9173097;19;20019;-69
2024/03/04 08:13:43;;;;;;;55.22;23.30;;;9.10;78.20;;;;;;9173314;19;20055;-71
2024/03/04 08:16:51;;;;;;;57.55;23.20;;;9.20;78.30;;;;;;9171973;19;20376;-69
2024/03/04 08:19:58;;;;;;;65.15;23.98;;;9.10;78.30;;;;;;9172313;19;20051;-69
2024/03/04 08:23:09;;;;;;;53.72;22.08;;;9.20;78.40;;;;;;9172630;19;20025;-70
2024/03/04 08:26:14;;;;;;;67.30;23.33;;;9.20;78.40;;;;;;9172686;19;20078;-69
2024/03/04 08:29:22;;;;;;;61.13;23.60;;;9.20;78.40;;;;;;9174188;19;20026;-70
2024/03/04 08:32:27;;;;;;;62.03;23.25;;;9.20;78.50;;;;;;9171881;19;20018;-70
2024/03/04 08:35:35;;;;;;;58.70;24.13;;;9.20;78.50;;;;;;9172768;19;20018;-69
2024/03/04 08:38:43;;;;;;;54.67;22.92;;;9.20;78.50;;;;;;9170451;19;20074;-68
2024/03/04 08:41:51;;;;;;;58.22;23.10;;;9.30;78.60;;;;;;9172979;19;20018;-70
2024/03/04 08:44:56;;;;;;;62.45;25.17;;;9.30;78.60;;;;;;9173367;19;20010;-69
2024/03/04 08:48:04;;;;;;;66.00;23.75;;;9.30;78.60;;;;;;9172470;19;20011;-71
2024/03/04 08:51:09;;;;;;;57.38;23.73;;;9.30;78.60;;;;;;9172615;19;20035;-70
2024/03/04 08:54:19;;;;;;;59.45;23.45;;;9.40;78.70;;;;;;9172111;19;20345;-69
2024/03/04 08:57:25;;;;;;;55.28;23.27;;;9.40;78.70;;;;;;9170948;19;20047;-71
2024/03/04 09:00:32;;;;;;;57.03;24.05;;;9.40;79.30;;;;;;9171913;19;20589;-69
2024/03/04 09:03:38;;;;;;;57.47;23.90;;;9.40;78.70;;;;;;9178239;19;20376;-70
2024/03/04 09:06:46;;;;;;;60.60;23.95;;;9.50;78.80;;;;;;9175491;19;20018;-71
2024/03/04 09:09:54;;;;;;;70.60;25.25;;;9.50;78.80;;;;;;9179065;19;20010;-69
2024/03/04 09:13:01;;;;;;;55.67;24.58;;;9.50;78.80;;;;;;9177955;19;20006;-69
2024/03/04 09:16:08;;;;;;;60.78;24.73;;;9.50;78.80;;;;;;9176202;19;20022;-69
2024/03/04 09:19:16;;;;;;;64.85;25.85;;;9.60;78.90;;;;;;9179718;19;20022;-69
2024/03/04 09:22:21;;;;;;;56.50;25.05;;;9.60;78.80;;;;;;9177253;19;20440;-72
2024/03/04 09:25:31;;;;;;;65.22;25.02;;;9.60;78.80;;;;;;9177378;19;20025;-70
2024/03/04 09:28:37;;;;;;;66.00;25.02;;;9.60;78.90;;;;;;9177464;19;20014;-69
2024/03/04 09:31:46;;;;;;;66.40;24.17;;;9.70;78.90;;;;;;9172282;19;20010;-69
2024/03/04 09:34:51;;;;;;;74.70;27.08;;;9.70;78.90;;;;;;9179510;19;20011;-70
2024/03/04 09:37:59;;;;;;;68.70;25.95;;;9.70;78.90;;;;;;9174502;19;20015;-70
2024/03/04 09:41:07;;;;;;;62.83;25.67;;;9.80;78.90;;;;;;9177359;19;20011;-70
2024/03/04 09:44:17;;;;;;;67.93;26.33;;;9.80;79.00;;;;;;9177623;19;20026;-70
2024/03/04 09:47:23;;;;;;;62.60;25.52;;;9.80;79.00;;;;;;9177214;19;20051;-70
2024/03/04 09:50:31;;;;;;;77.28;26.10;;;9.80;78.90;;;;;;9175951;19;20022;-70
2024/03/04 09:53:38;;;;;;;72.47;27.92;;;9.80;79.00;;;;;;9178090;19;20017;-69
2024/03/04 09:56:49;;;;;;;62.88;26.25;;;9.80;79.00;;;;;;9177264;19;20022;-69
2024/03/04 09:59:55;;;;;;;78.05;27.25;;;9.90;79.10;;;;;;9177318;19;20134;-69
2024/03/04 10:03:02;;;;;;;69.93;23.15;;;9.90;79.00;;;;;;9177748;19;20119;-70
2024/03/04 10:06:08;;;;;;;62.60;22.63;;;9.90;79.60;;;;;;9177963;19;20025;-68
2024/03/04 10:09:15;;;;;;;56.60;21.85;;;9.90;78.90;;;;;;9172873;19;20022;-68
2024/03/04 10:12:24;;;;;;;65.50;21.40;;;9.90;78.90;;;;;;9170794;19;20047;-69
2024/03/04 10:15:32;;;;;;;53.75;21.10;;;10.00;79.10;;;;;;9173080;19;20006;-68
2024/03/04 10:18:38;;;;;;;54.60;21.70;;;10.00;79.00;;;;;;9164921;19;20122;-68
2024/03/04 10:21:46;;;;;;;53.45;20.65;;;10.00;79.00;;;;;;9171261;19;20037;-69
2024/03/04 10:25:03;;;;;;;50.92;20.75;;;10.00;79.00;;;;;;9174264;19;20063;-69
2024/03/04 10:28:14;;;;;;;50.47;19.77;;;10.00;79.00;;;;;;9176575;19;20010;-68
2024/03/04 10:31:20;;;;;;;55.40;19.45;;;10.00;79.00;;;;;;9178846;19;20025;-69
2024/03/04 10:34:27;;;;;;;47.17;18.73;;;10.00;79.00;;;;;;9176498;19;20015;-69
2024/03/04 10:37:33;;;;;;;59.10;19.92;;;10.00;79.00;;;;;;9174373;19;20791;-68
2024/03/04 10:40:41;;;;;;;55.15;19.85;;;10.00;79.00;;;;;;9174000;19;20026;-70
2024/03/04 10:43:51;;;;;;;48.22;17.58;;;10.00;79.10;;;;;;9174685;19;20098;-70
2024/03/04 10:47:03;;;;;;;58.22;20.02;;;10.10;79.20;;;;;;9174327;19;20011;-68
2024/03/04 10:50:10;;;;;;;48.70;17.33;;;10.10;79.20;;;;;;9176485;19;20078;-70
2024/03/04 10:53:17;;;;;;;46.03;17.92;;;10.10;79.20;;;;;;9175697;19;20018;-68
2024/03/04 10:56:24;;;;;;;39.70;17.00;;;10.10;79.20;;;;;;9175278;19;20078;-68
2024/03/04 10:59:38;;;;;;;44.97;18.15;;;10.10;79.20;;;;;;9173851;19;20014;-70
2024/03/04 11:02:49;;;;;;;49.60;18.25;;;10.10;79.20;;;;;;9174848;19;20830;-70
2024/03/04 11:06:00;;;;;;;44.53;17.52;;;10.10;79.80;;;;;;9175651;19;20022;-68
2024/03/04 11:09:08;;;;;;;39.60;16.73;;;10.10;79.20;;;;;;9171717;19;20019;-69
2024/03/04 11:12:19;;;;;;;48.85;18.55;;;10.10;79.20;;;;;;9175497;19;20042;-69
2024/03/04 11:15:29;;;;;;;42.92;16.42;;;10.10;79.30;;;;;;9173758;19;20018;-71
2024/03/04 11:18:47;;;;;;;43.60;16.38;;;10.10;79.20;;;;;;9174856;19;20021;-69
2024/03/04 11:21:53;;;;;;;42.00;16.95;;;10.10;79.30;;;;;;9175545;19;20018;-69
2024/03/04 11:25:01;;;;;;;37.45;15.38;;;10.20;79.30;;;;;;9173860;19;20882;-69
2024/03/04 11:28:08;;;;;;;38.47;15.15;;;10.20;79.30;;;;;;9172642;19;20022;-70
2024/03/04 11:31:28;;;;;;;48.17;16.50;;;10.20;79.30;;;;;;9175292;19;20014;-69
2024/03/04 11:34:45;;;;;;;35.22;13.80;;;10.20;79.40;;;;;;9174998;19;20034;-69
2024/03/04 11:37:54;;;;;;;39.60;13.75;;;10.20;79.30;;;;;;9173170;19;20014;-70
2024/03/04 11:41:00;;;;;;;34.67;13.48;;;10.20;79.30;;;;;;9174198;19;20479;-70
2024/03/04 11:44:07;;;;;;;39.03;14.40;;;10.20;79.30;;;;;;9175592;19;20022;-69
2024/03/04 11:47:15;;;;;;;32.08;14.23;;;10.20;79.20;;;;;;9173176;19;20475;-69
2024/03/04 11:50:45;;;;;;;35.47;12.57;;;10.20;79.30;;;;;;9174558;19;20791;-69
2024/03/04 11:53:52;;;;;;;26.13;11.07;;;10.20;79.30;;;;;;9174112;19;20082;-68
2024/03/04 11:57:00;;;;;;;31.98;11.70;;;10.20;79.30;;;;;;9173800;19;20011;-69
2024/03/04 12:00:09;;;;;;;22.27;11.70;;;10.20;79.30;;;;;;9172013;19;20043;-68
2024/03/04 12:03:20;;;;;;;33.05;12.23;;;10.20;79.30;;;;;;9172224;19;20020;-69
2024/03/04 12:06:25;;;;;;;35.60;13.68;;;10.20;79.40;;;;;;9168387;19;20007;-68
2024/03/04 12:09:34;;;;;;;34.78;13.20;;;10.20;79.40;;;;;;9170774;19;20022;-68
2024/03/04 12:12:43;;;;;;;31.08;11.32;;;10.20;79.40;;;;;;9169357;19;20079;-69
2024/03/04 12:15:56;;;;;;;29.02;11.50;;;10.20;79.40;;;;;;9173255;19;20015;-69
2024/03/04 12:19:05;;;;;;;37.33;11.98;;;10.20;79.40;;;;;;9172321;19;20011;-69
2024/03/04 12:22:13;;;;;;;28.90;11.27;;;10.20;79.50;;;;;;9174015;19;20537;-70
2024/03/04 12:25:19;;;;;;;30.23;12.15;;;10.20;79.40;;;;;;9174342;19;20019;-68
2024/03/04 12:28:27;;;;;;;25.65;10.65;;;10.20;79.40;;;;;;9172215;19;20014;-69
2024/03/04 12:31:37;;;;;;;31.83;11.00;;;10.20;79.40;;;;;;9173725;19;20133;-69
2024/03/04 12:34:50;;;;;;;32.10;12.57;;;10.20;79.40;;;;;;9174227;19;20018;-69
2024/03/04 12:37:56;;;;;;;26.10;11.07;;;10.20;79.50;;;;;;9173529;19;20047;-69
2024/03/04 12:41:06;;;;;;;30.48;11.45;;;10.20;79.50;;;;;;9178115;19;20026;-69
2024/03/04 12:44:14;;;;;;;31.80;12.02;;;10.20;79.50;;;;;;9182122;19;20081;-69
2024/03/04 12:47:22;;;;;;;27.02;12.10;;;10.20;79.50;;;;;;9181269;19;20026;-69
2024/03/04 12:50:31;;;;;;;26.42;11.73;;;10.20;79.40;;;;;;9182447;19;20014;-69
2024/03/04 12:53:38;;;;;;;27.38;13.75;;;10.20;79.50;;;;;;9181632;19;20769;-69
2024/03/04 12:56:44;;;;;;;24.92;11.77;;;10.20;79.50;;;;;;9181282;19;20046;-69
2024/03/04 12:59:52;;;;;;;28.38;12.27;;;10.30;79.60;;;;;;9179207;19;20022;-69
2024/03/04 13:02:57;;;;;;;25.65;11.43;;;10.20;79.50;;;;;;9178617;19;20055;-69
2024/03/04 13:06:07;;;;;;;28.67;11.68;;;10.30;79.60;;;;;;9181635;19;20471;-69
2024/03/04 13:09:15;;;;;;;25.27;11.50;;;10.30;79.70;;;;;;9176196;19;20015;-69
2024/03/04 13:12:23;;;;;;;29.67;12.00;;;10.30;79.60;;;;;;9180527;19;20010;-69
2024/03/04 13:15:28;;;;;;;27.75;10.88;;;10.30;79.60;;;;;;9180076;19;20681;-69
2024/03/04 13:18:36;;;;;;;24.10;10.95;;;10.40;79.70;;;;;;9177953;19;20018;-68
2024/03/04 13:21:44;;;;;;;26.48;10.70;;;10.40;79.60;;;;;;9180991;19;20019;-69
2024/03/04 13:24:52;;;;;;;28.10;11.55;;;10.40;79.60;;;;;;9180863;19;20014;-69
2024/03/04 13:27:57;;;;;;;27.48;10.75;;;10.50;79.60;;;;;;9180007;19;20019;-69
2024/03/04 13:31:05;;;;;;;24.42;11.38;;;10.50;79.60;;;;;;9180541;19;20022;-69
2024/03/04 13:34:11;;;;;;;28.00;11.50;;;10.50;79.60;;;;;;9178466;19;20015;-68
2024/03/04 13:37:21;;;;;;;25.52;10.95;;;10.50;79.60;;;;;;9178710;19;20141;-69
2024/03/04 13:40:26;;;;;;;25.85;10.35;;;10.50;79.60;;;;;;9176470;19;20486;-69
2024/03/04 13:43:34;;;;;;;19.13;8.50;;;10.50;79.60;;;;;;9178175;19;20017;-69
2024/03/04 13:46:40;;;;;;;14.82;7.63;;;10.60;79.60;;;;;;9178562;19;20030;-69
2024/03/04 13:49:48;;;;;;;15.50;7.57;;;10.60;79.50;;;;;;9176791;19;20360;-69
2024/03/04 13:52:56;;;;;;;13.45;6.85;;;10.60;79.50;;;;;;9177577;19;20014;-69
2024/03/04 13:56:04;;;;;;;17.05;6.15;;;10.60;79.50;;;;;;9176575;19;20029;-68
2024/03/04 13:59:11;;;;;;;16.42;5.78;;;10.60;79.50;;;;;;9178318;19;20801;-69
2024/03/04 14:02:19;;;;;;;19.83;6.43;;;10.60;79.50;;;;;;9176296;19;20033;-69
2024/03/04 14:05:24;;;;;;;14.43;6.80;;;10.60;79.40;;;;;;9177089;19;21339;-69
2024/03/04 14:08:34;;;;;;;9.60;5.43;;;10.60;79.50;;;;;;9172511;19;20026;-68
2024/03/04 14:11:40;;;;;;;16.70;5.78;;;10.70;79.50;;;;;;9176408;19;20018;-69
2024/03/04 14:14:47;;;;;;;13.50;6.55;;;10.70;79.40;;;;;;9173498;19;20033;-68
2024/03/04 14:17:53;;;;;;;13.02;6.30;;;10.70;79.40;;;;;;9177268;19;20042;-70
2024/03/04 14:21:00;;;;;;;13.05;6.15;;;10.70;79.40;;;;;;9176869;19;20018;-69
2024/03/04 14:24:09;;;;;;;18.65;6.65;;;10.70;79.40;;;;;;9176603;19;20033;-69
2024/03/04 14:27:16;;;;;;;13.93;6.50;;;10.70;79.40;;;;;;9175304;19;20049;-69
2024/03/04 14:30:22;;;;;;;14.80;6.05;;;10.70;79.40;;;;;;9175530;19;20021;-69
2024/03/04 14:33:30;;;;;;;11.15;6.00;;;10.70;79.40;;;;;;9175558;19;20011;-70
2024/03/04 14:36:35;;;;;;;14.38;6.10;;;10.70;79.40;;;;;;9177266;19;20022;-70
2024/03/04 14:39:45;;;;;;;14.60;6.20;;;10.70;79.30;;;;;;9177082;19;20018;-69
2024/03/04 14:42:51;;;;;;;10.50;5.85;;;10.70;79.40;;;;;;9175911;19;20019;-70
2024/03/04 14:45:58;;;;;;;12.77;5.47;;;10.70;79.30;;;;;;9176596;19;20359;-69
2024/03/04 14:49:04;;;;;;;15.15;5.85;;;10.70;79.30;;;;;;9176852;19;20480;-69
2024/03/04 14:52:12;;;;;;;13.48;5.57;;;10.70;79.30;;;;;;9174950;19;20018;-69
2024/03/04 14:55:20;;;;;;;16.95;5.80;;;10.70;79.20;;;;;;9175503;19;20014;-69
2024/03/04 14:58:28;;;;;;;15.10;5.70;;;10.70;79.20;;;;;;9177046;19;20047;-70
2024/03/04 15:01:34;;;;;;;11.20;5.93;;;10.70;79.20;;;;;;9173101;19;20043;-69
2024/03/04 15:04:42;;;;;;;14.75;6.38;;;10.70;79.20;;;;;;9174899;19;20406;-69
2024/03/04 15:07:47;;;;;;;15.43;6.25;;;10.70;79.30;;;;;;9169986;19;20435;-69
2024/03/04 15:10:57;;;;;;;14.35;5.78;;;10.70;79.20;;;;;;9171686;19;20011;-69
2024/03/04 15:14:05;;;;;;;10.98;5.57;;;10.70;79.20;;;;;;9176037;19;20014;-69
2024/03/04 15:17:13;;;;;;;13.50;6.82;;;10.70;79.20;;;;;;9175377;19;20510;-71
2024/03/04 15:20:21;;;;;;;19.63;8.13;;;10.70;79.20;;;;;;9175525;19;20019;-70
2024/03/04 15:23:28;;;;;;;18.85;7.10;;;10.70;79.20;;;;;;9175917;19;20357;-69
2024/03/04 15:26:40;;;;;;;13.73;6.50;;;10.70;79.20;;;;;;9175263;19;20030;-70
2024/03/04 15:29:48;;;;;;;14.02;6.30;;;10.70;79.20;;;;;;9175003;19;20025;-69
2024/03/04 15:32:57;;;;;;;15.23;5.50;;;10.70;79.20;;;;;;9172685;19;20018;-70
2024/03/04 15:36:04;;;;;;;11.35;5.10;;;10.70;79.20;;;;;;9173548;19;20029;-69
2024/03/04 15:39:21;;;;;;;14.50;5.38;;;10.70;79.10;;;;;;9173307;19;20022;-69
2024/03/04 15:42:31;;;;;;;12.40;4.80;;;10.60;79.10;;;;;;9172258;19;20029;-69
2024/03/04 15:45:37;;;;;;;12.82;5.75;;;10.70;79.20;;;;;;9171886;19;20015;-69
2024/03/04 15:48:45;;;;;;;16.27;5.20;;;10.60;79.10;;;;;;9173068;19;20403;-69
2024/03/04 15:51:51;;;;;;;15.13;6.20;;;10.60;79.10;;;;;;9172791;19;20718;-69
2024/03/04 15:54:58;;;;;;;16.75;8.70;;;10.60;79.20;;;;;;9173354;19;20014;-69
2024/03/04 15:58:08;;;;;;;22.33;7.03;;;10.60;79.20;;;;;;9173349;19;20007;-69
2024/03/04 16:01:23;;;;;;;18.08;7.20;;;10.60;79.80;;;;;;9171124;19;20470;-69
2024/03/04 16:04:29;;;;;;;18.50;7.55;;;10.60;79.20;;;;;;9173215;19;20022;-69